Welcome to Northern Hawkes Bay. New Zealand.
PWS Header
      nz Flag



Hit Counter


W3C Valid W3C Valid logo


    Wairoa

Select any of the Stations below to visit their websites.










Historic Data from Weather Underground
Select the location of interest below. Wairoa is the default. Please have patience, this Data is slow to load in.
Northern Hawkes Bay Historical Data
Daily Summary for February 3, 2017 Units:  English    Metric   Both
« Previous Day
Next Day »
Daily Weekly Monthly Yearly Custom
  High: Low: Average:
Temperature: 86.5 °F 62.4 °F 75 °F
Dew Point: 64.9 °F 54.7 °F 58.8 °F
Humidity: 82% 36% 58%
Wind Speed: 16.8mph 0mph 6.6mph
Wind Gust: 25.1mph - -
Wind- - SW
Pressure: 29.9 in 29.7 in -
Precipitation: 0 in    
Historical Graphs
 
 
Tabular Data for February 3, 2017
Time Temperature Dew Point Pressure Wind Wind Speed Wind Gust Humidity Rainfall Rate (Hourly) solar
02:29 72 °F 56.8 °F 29.7 in North 9.2 mph 18.3 mph 59% 0 in 0 W/m2
02:48 71.8 °F 57.6 °F 29.7 in NW 6.9 mph 15.2 mph 61% 0 in 0 W/m2
02:53 71.8 °F 57.6 °F 29.7 in NNW 6.9 mph 15.2 mph 61% 0 in 0 W/m2
02:58 71.8 °F 57.6 °F 29.7 in NNW 7.6 mph 13.6 mph 61% 0 in 0 W/m2
03:03 71.6 °F 57.9 °F 29.7 in NNW 9.8 mph 13 mph 62% 0 in 0 W/m2
03:08 71.6 °F 57.9 °F 29.7 in NNW 9.8 mph 17.4 mph 62% 0 in 0 W/m2
03:13 71.6 °F 57.9 °F 29.7 in NNW 13.6 mph 20.6 mph 62% 0.01 in 0 W/m2
03:18 71.6 °F 57.9 °F 29.7 in NNW 6.9 mph 20.6 mph 62% 0.01 in 0 W/m2
03:23 71.4 °F 58.3 °F 29.7 in NNW 9.2 mph 20.6 mph 63% 0.01 in 0 W/m2
03:27 71.4 °F 58.6 °F 29.7 in NW 6 mph 16.8 mph 64% 0.01 in 0 W/m2
03:32 71.4 °F 58.6 °F 29.7 in NW 7.6 mph 13.6 mph 64% 0.01 in 0 W/m2
03:37 71.4 °F 58.6 °F 29.7 in NW 10.7 mph 17.4 mph 64% 0.01 in 0 W/m2
03:42 71.6 °F 57.9 °F 29.7 in NW 9.2 mph 19 mph 62% 0.01 in 0 W/m2
03:47 71.6 °F 57.9 °F 29.7 in NW 8.3 mph 19 mph 62% 0.01 in 0 W/m2
03:52 71.8 °F 58.1 °F 29.7 in NW 5.4 mph 23.5 mph 62% 0.01 in 0 W/m2
03:57 71.6 °F 57.9 °F 29.7 in WNW 6 mph 23.5 mph 62% 0.01 in 0 W/m2
04:02 71.8 °F 58.1 °F 29.7 in NW 6 mph 12.1 mph 62% 0.01 in 0 W/m2
04:07 71.8 °F 58.1 °F 29.7 in NNW 9.2 mph 14.5 mph 62% 0.01 in 0 W/m2
04:12 72 °F 58.3 °F 29.7 in NNW 6 mph 14.5 mph 62% 0 in 0 W/m2
04:17 71.8 °F 58.1 °F 29.7 in NNW 3.1 mph 14.5 mph 62% 0 in 0 W/m2
04:22 71.8 °F 58.1 °F 29.7 in NNW 4.5 mph 12.1 mph 62% 0 in 0 W/m2
04:27 72 °F 58.3 °F 29.7 in NNW 7.6 mph 13.6 mph 62% 0 in 0 W/m2
04:32 72 °F 58.3 °F 29.7 in NNW 8.3 mph 13.6 mph 62% 0 in 0 W/m2
04:37 72.1 °F 58.5 °F 29.7 in NNW 10.7 mph 14.5 mph 62% 0 in 0 W/m2
04:42 72.1 °F 58.5 °F 29.7 in North 6.9 mph 14.5 mph 62% 0 in 0 W/m2
04:47 72.1 °F 58.5 °F 29.7 in NNW 9.8 mph 16.8 mph 62% 0 in 0 W/m2
04:52 72 °F 58.6 °F 29.7 in NNW 8.3 mph 16.8 mph 63% 0 in 0 W/m2
04:57 72 °F 58.6 °F 29.7 in NNW 8.3 mph 15.2 mph 63% 0 in 0 W/m2
05:02 72 °F 58.6 °F 29.7 in NNW 8.3 mph 15.2 mph 63% 0 in 0 W/m2
05:07 72 °F 58.6 °F 29.7 in NNW 9.2 mph 14.5 mph 63% 0 in 0 W/m2
05:12 72 °F 58.6 °F 29.7 in NNW 7.6 mph 14.5 mph 63% 0 in 0 W/m2
05:17 72 °F 58.6 °F 29.7 in NNW 6 mph 14.5 mph 63% 0 in 0 W/m2
05:22 72 °F 58.6 °F 29.7 in NNW 11.4 mph 19 mph 63% 0 in 0 W/m2
05:27 72 °F 58.6 °F 29.7 in NNW 13 mph 19 mph 63% 0 in 0 W/m2
05:32 72 °F 58.6 °F 29.7 in NNW 13 mph 19.7 mph 63% 0 in 0 W/m2
05:37 72 °F 58.6 °F 29.7 in NNW 12.1 mph 19.7 mph 63% 0 in 0 W/m2
05:42 72 °F 58.6 °F 29.7 in NNW 9.8 mph 19.7 mph 63% 0 in 0 W/m2
05:47 72 °F 58.6 °F 29.7 in NNW 6 mph 16.8 mph 63% 0 in 0 W/m2
05:52 71.8 °F 58.5 °F 29.7 in NNW 6.9 mph 16.8 mph 63% 0 in 0 W/m2
05:57 71.8 °F 58.5 °F 29.7 in North 8.3 mph 19.7 mph 63% 0 in 0 W/m2
06:02 71.8 °F 58.5 °F 29.7 in North 6 mph 19.7 mph 63% 0 in 0 W/m2
06:07 71.6 °F 58.8 °F 29.7 in NNW 4.5 mph 13.6 mph 64% 0 in 0 W/m2
06:12 71.6 °F 58.8 °F 29.8 in NNW 6 mph 13 mph 64% 0 in 0 W/m2
06:17 71.4 °F 59.2 °F 29.7 in NNW 3.8 mph 12.1 mph 65% 0 in 0 W/m2
06:22 71.4 °F 59.2 °F 29.8 in NNW 4.5 mph 13.6 mph 65% 0 in 0 W/m2
06:27 71.4 °F 59.2 °F 29.8 in Calm   13.6 mph 65% 0 in 0 W/m2
06:32 71.2 °F 58.8 °F 29.8 in NNW 3.1 mph 8.3 mph 65% 0 in 3 W/m2
06:37 71.4 °F 59.2 °F 29.8 in NW 0.7 mph 6.9 mph 65% 0 in 6 W/m2
06:42 71.1 °F 59.2 °F 29.8 in West 3.8 mph 6.9 mph 66% 0 in 10 W/m2
06:47 71.1 °F 59.2 °F 29.8 in West 1.6 mph 5.4 mph 66% 0 in 13 W/m2
06:52 71.2 °F 59.4 °F 29.8 in NW 3.1 mph 5.4 mph 66% 0 in 17 W/m2
06:57 71.4 °F 59.5 °F 29.8 in NW 6 mph 9.8 mph 66% 0 in 22 W/m2
07:02 71.4 °F 59.5 °F 29.8 in NNW 3.8 mph 10.7 mph 66% 0 in 25 W/m2
07:07 71.4 °F 59.5 °F 29.8 in NNW 7.6 mph 11.4 mph 66% 0 in 25 W/m2
07:12 71.6 °F 59.2 °F 29.8 in NNW 4.5 mph 13.6 mph 65% 0 in 22 W/m2
07:17 71.6 °F 59.2 °F 29.8 in NNW 6 mph 13.6 mph 65% 0 in 21 W/m2
07:22 71.6 °F 59.2 °F 29.8 in NNW 5.4 mph 11.4 mph 65% 0 in 28 W/m2
07:27 71.8 °F 59.4 °F 29.8 in NNW 3.8 mph 9.8 mph 65% 0 in 42 W/m2
07:32 72.3 °F 59.9 °F 29.8 in NNW 4.5 mph 9.8 mph 65% 0 in 122 W/m2
07:37 73.4 °F 61 °F 29.8 in NNW 4.5 mph 8.3 mph 65% 0 in 143 W/m2
07:42 74.3 °F 61 °F 29.8 in NNW 6.9 mph 11.4 mph 63% 0 in 168 W/m2
07:47 75.6 °F 60.6 °F 29.8 in North 4.5 mph 11.4 mph 60% 0 in 200 W/m2
07:52 77 °F 60.6 °F 29.8 in NNE 3.1 mph 11.4 mph 57% 0 in 237 W/m2
07:57 77.9 °F 60.4 °F 29.8 in NNE 6 mph 11.4 mph 55% 0 in 262 W/m2
08:02 77.9 °F 61 °F 29.8 in North 2.2 mph 11.4 mph 56% 0 in 295 W/m2
08:21 77.2 °F 60.8 °F 29.8 in NNW 7.6 mph 15.9 mph 57% 0 in 277 W/m2
08:26 77 °F 60.6 °F 29.8 in NW 8.3 mph 17.4 mph 57% 0 in 275 W/m2
08:31 77.2 °F 60.8 °F 29.8 in NNW 8.3 mph 17.4 mph 57% 0 in 185 W/m2
08:36 76.5 °F 60.6 °F 29.8 in NNW 6.9 mph 15.2 mph 58% 0 in 68 W/m2
08:41 75.6 °F 60.3 °F 29.8 in NNW 9.2 mph 13.6 mph 59% 0 in 300 W/m2
08:46 76.5 °F 61.5 °F 29.8 in NNW 9.8 mph 14.5 mph 60% 0 in 314 W/m2
08:51 77.4 °F 61 °F 29.8 in NNW 6.9 mph 15.2 mph 57% 0 in 327 W/m2
08:56 78.1 °F 61.2 °F 29.8 in NNW 9.2 mph 15.2 mph 56% 0 in 347 W/m2
09:01 77.9 °F 61 °F 29.8 in NNW 9.2 mph 14.5 mph 56% 0 in 364 W/m2
09:06 78.3 °F 61.3 °F 29.8 in NNW 8.3 mph 14.5 mph 56% 0 in 382 W/m2
09:11 78.4 °F 61 °F 29.8 in NNW 9.2 mph 18.3 mph 55% 0 in 396 W/m2
09:16 79.2 °F 61.5 °F 29.8 in NNW 7.6 mph 18.3 mph 55% 0 in 412 W/m2
09:21 79 °F 61 °F 29.8 in North 11.4 mph 17.4 mph 54% 0 in 436 W/m2
09:26 79.3 °F 61.3 °F 29.8 in NNW 7.6 mph 17.4 mph 54% 0 in 446 W/m2
09:31 79.2 °F 60.6 °F 29.8 in NW 11.4 mph 19.7 mph 53% 0 in 474 W/m2
09:36 79 °F 60.4 °F 29.8 in NW 6 mph 19.7 mph 53% 0 in 483 W/m2
09:41 79.7 °F 61.2 °F 29.8 in NW 13 mph 19.7 mph 53% 0 in 510 W/m2
09:46 79.5 °F 60.4 °F 29.8 in NW 9.8 mph 19 mph 52% 0 in 534 W/m2
09:51 79.9 °F 60.6 °F 29.8 in NNW 7.6 mph 19 mph 52% 0 in 548 W/m2
09:56 80.2 °F 60.4 °F 29.8 in North 11.4 mph 19.7 mph 51% 0 in 581 W/m2
10:01 80.4 °F 60.1 °F 29.8 in NNW 6 mph 19.7 mph 50% 0 in 589 W/m2
10:06 81 °F 59.5 °F 29.8 in NNW 9.2 mph 19.7 mph 48% 0 in 614 W/m2
10:11 81 °F 60.6 °F 29.8 in NNW 12.1 mph 19.7 mph 50% 0 in 633 W/m2
10:16 81.3 °F 60.4 °F 29.8 in NW 12.1 mph 19.7 mph 49% 0 in 650 W/m2
10:21 81.1 °F 59 °F 29.8 in NNW 7.6 mph 19 mph 47% 0 in 682 W/m2
10:26 81.7 °F 60.6 °F 29.8 in NNW 6 mph 19 mph 49% 0 in 692 W/m2
10:31 82.8 °F 61.2 °F 29.8 in NW 6.9 mph 15.2 mph 48% 0 in 717 W/m2
10:36 82.6 °F 61 °F 29.8 in NW 6.9 mph 14.5 mph 48% 0 in 740 W/m2
10:41 82.4 °F 60.8 °F 29.8 in NNW 5.4 mph 15.2 mph 48% 0 in 752 W/m2
10:46 82.4 °F 60.3 °F 29.8 in NNW 8.3 mph 15.2 mph 47% 0 in 797 W/m2
10:51 81.5 °F 58.8 °F 29.8 in NNW 9.8 mph 20.6 mph 46% 0 in 811 W/m2
10:56 81.3 °F 59.2 °F 29.8 in NNW 5.4 mph 24.4 mph 47% 0 in 807 W/m2
11:01 82.2 °F 58.8 °F 29.8 in NW 9.8 mph 24.4 mph 45% 0 in 837 W/m2
11:06 82.2 °F 58.8 °F 29.8 in NW 10.7 mph 22.1 mph 45% 0 in 844 W/m2
11:11 82.6 °F 59.2 °F 29.8 in NW 8.3 mph 22.1 mph 45% 0 in 873 W/m2
11:16 82.8 °F 59.4 °F 29.8 in NW 9.2 mph 16.8 mph 45% 0 in 878 W/m2
11:21 83.3 °F 59.2 °F 29.8 in NW 10.7 mph 21.3 mph 44% 0 in 902 W/m2
11:26 82.6 °F 58.5 °F 29.8 in NNW 10.7 mph 22.1 mph 44% 0 in 898 W/m2
11:31 82.8 °F 57.4 °F 29.8 in NW 9.2 mph 22.1 mph 42% 0 in 920 W/m2
11:36 83.3 °F 57.2 °F 29.8 in NW 11.4 mph 21.3 mph 41% 0 in 938 W/m2
11:41 83.5 °F 57.4 °F 29.8 in NW 10.7 mph 21.3 mph 41% 0 in 945 W/m2
11:46 83.1 °F 56.3 °F 29.8 in NNW 16.8 mph 21.3 mph 40% 0 in 949 W/m2
11:50 82.8 °F 55.9 °F 29.8 in NW 13 mph 21.3 mph 40% 0 in 949 W/m2
11:55 82.9 °F 55.6 °F 29.8 in NW 14.5 mph 25.1 mph 39% 0 in 948 W/m2
12:00 83.5 °F 56.7 °F 29.8 in WNW 13 mph 25.1 mph 40% 0 in 970 W/m2
12:05 83.5 °F 55.2 °F 29.8 in NW 6.9 mph 19.7 mph 38% 0 in 977 W/m2
12:10 84 °F 55.8 °F 29.8 in NNW 6.9 mph 19 mph 38% 0 in 986 W/m2
12:15 84.9 °F 55.8 °F 29.8 in NNW 11.4 mph 17.4 mph 37% 0 in 995 W/m2
12:32 84.9 °F 55 °F 29.8 in NNW 8.3 mph 19 mph 36% 0 in 999 W/m2
12:37 85.6 °F 55.8 °F 29.8 in NNW 7.6 mph 17.4 mph 36% 0 in 1005 W/m2
12:42 86.5 °F 57.9 °F 29.8 in WNW 4.5 mph 15.9 mph 38% 0 in 1014 W/m2
12:47 83.3 °F 60.4 °F 29.8 in SSW 5.4 mph 13 mph 46% 0 in 1006 W/m2
12:52 81.5 °F 61.7 °F 29.8 in South 6 mph 11.4 mph 51% 0 in 994 W/m2
12:57 81 °F 61.2 °F 29.8 in South 8.3 mph 12.1 mph 51% 0 in 989 W/m2
13:02 79.7 °F 61.5 °F 29.8 in South 10.7 mph 15.9 mph 54% 0 in 981 W/m2
13:07 78.6 °F 61.2 °F 29.8 in South 7.6 mph 15.9 mph 55% 0 in 973 W/m2
13:12 79.2 °F 61.2 °F 29.8 in South 5.4 mph 14.5 mph 54% 0 in 971 W/m2
13:17 80.2 °F 62.1 °F 29.8 in SSE 5.4 mph 10.7 mph 54% 0 in 971 W/m2
13:22 80.8 °F 61.5 °F 29.8 in SSE 2.2 mph 12.1 mph 52% 0 in 970 W/m2
13:27 80.6 °F 60.8 °F 29.8 in SSE 3.8 mph 12.1 mph 51% 0 in 969 W/m2
13:32 80.6 °F 59.7 °F 29.8 in SE 3.8 mph 11.4 mph 49% 0 in 963 W/m2
13:37 81.1 °F 60.3 °F 29.8 in SE 5.4 mph 11.4 mph 49% 0 in 962 W/m2
13:42 81.3 °F 60.4 °F 29.8 in SSE 4.5 mph 9.2 mph 49% 0 in 957 W/m2
13:47 82 °F 59.4 °F 29.8 in SSE 4.5 mph 9.8 mph 46% 0 in 955 W/m2
13:52 82 °F 58.6 °F 29.8 in SSE 8.3 mph 11.4 mph 45% 0 in 947 W/m2
13:57 81.3 °F 60.4 °F 29.8 in SSE 9.2 mph 11.4 mph 49% 0 in 934 W/m2
14:02 80.6 °F 58.5 °F 29.8 in SSE 6.9 mph 11.4 mph 47% 0 in 927 W/m2
14:07 79.9 °F 58.5 °F 29.8 in South 6.9 mph 11.4 mph 48% 0 in 916 W/m2
14:12 79.3 °F 59.7 °F 29.8 in South 4.5 mph 11.4 mph 51% 0 in 906 W/m2
14:17 79.9 °F 59.2 °F 29.8 in South 7.6 mph 10.7 mph 49% 0 in 902 W/m2
14:22 79.3 °F 59.2 °F 29.8 in South 7.6 mph 12.1 mph 50% 0 in 896 W/m2
14:28 79.3 °F 60.8 °F 29.8 in SSE 6.9 mph 12.1 mph 53% 0 in 891 W/m2
14:33 78.4 °F 62.4 °F 29.8 in South 3.8 mph 13 mph 58% 0 in 882 W/m2
14:38 78.6 °F 64.9 °F 29.8 in South 7.6 mph 13.6 mph 63% 0 in 867 W/m2
14:43 77.9 °F 63.9 °F 29.8 in SSE 2.2 mph 14.5 mph 62% 0 in 845 W/m2
14:48 78.3 °F 64.8 °F 29.8 in SE 5.4 mph 14.5 mph 63% 0 in 831 W/m2
14:50 77.9 °F 64.2 °F 29.8 in SE 6.9 mph 14.5 mph 63% 0 in 825 W/m2
14:55 76.3 °F 64 °F 29.8 in SE 7.6 mph 16.8 mph 66% 0 in 797 W/m2
15:00 76.5 °F 64.8 °F 29.8 in SE 3.8 mph 16.8 mph 67% 0 in 799 W/m2
15:05 77.7 °F 64.6 °F 29.8 in SSE 6 mph 13.6 mph 64% 0 in 783 W/m2
15:10 78.1 °F 64 °F 29.9 in SSE 5.4 mph 11.4 mph 62% 0 in 761 W/m2
15:15 76.8 °F 63 °F 29.8 in SSE 6.9 mph 11.4 mph 62% 0 in 763 W/m2
15:20 77.4 °F 63.9 °F 29.8 in SE 6 mph 11.4 mph 63% 0 in 748 W/m2
15:25 77 °F 62.1 °F 29.8 in ESE 7.6 mph 13.6 mph 60% 0 in 740 W/m2
15:30 76.3 °F 62.2 °F 29.8 in SE 4.5 mph 14.5 mph 62% 0 in 726 W/m2
15:35 76.3 °F 62.2 °F 29.8 in SE 6 mph 14.5 mph 62% 0 in 600 W/m2
15:40 76.3 °F 62.2 °F 29.8 in SE 4.5 mph 13 mph 62% 0 in 523 W/m2
15:45 76.3 °F 62.8 °F 29.8 in SE 3.8 mph 13 mph 63% 0 in 690 W/m2
16:03 75.6 °F 61.2 °F 29.8 in SE 5.4 mph 13 mph 61% 0 in 600 W/m2
16:08 76.1 °F 61.2 °F 29.9 in ESE 6 mph 13.6 mph 60% 0 in 488 W/m2
16:13 75.6 °F 59.7 °F 29.8 in ESE 7.6 mph 13.6 mph 58% 0 in 475 W/m2
16:18 76.1 °F 59.4 °F 29.8 in SE 8.3 mph 12.1 mph 56% 0 in 557 W/m2
16:23 77 °F 59.5 °F 29.9 in SE 7.6 mph 11.4 mph 55% 0 in 570 W/m2
16:28 77.7 °F 60.3 °F 29.8 in SSE 4.5 mph 12.1 mph 55% 0 in 391 W/m2
16:33 78.1 °F 60.6 °F 29.8 in SE 6 mph 13 mph 55% 0 in 544 W/m2
16:38 77.7 °F 59.7 °F 29.9 in SE 6 mph 13 mph 54% 0 in 564 W/m2
16:43 78.3 °F 60.3 °F 29.9 in SE 7.6 mph 13 mph 54% 0 in 554 W/m2
16:48 77 °F 59.2 °F 29.9 in ESE 8.3 mph 13.6 mph 54% 0 in 537 W/m2
16:53 77 °F 58.6 °F 29.9 in ESE 6 mph 13.6 mph 53% 0 in 523 W/m2
16:58 77 °F 58.1 °F 29.9 in ESE 6.9 mph 13.6 mph 52% 0 in 507 W/m2
17:03 77.4 °F 57.9 °F 29.9 in ESE 5.4 mph 12.1 mph 51% 0 in 498 W/m2
17:08 77.7 °F 58.3 °F 29.9 in ESE 7.6 mph 14.5 mph 51% 0 in 480 W/m2
17:13 77 °F 58.6 °F 29.8 in SE 7.6 mph 14.5 mph 53% 0 in 465 W/m2
17:18 77.4 °F 59.5 °F 29.9 in SE 6.9 mph 13 mph 54% 0 in 451 W/m2
17:23 76.3 °F 59.5 °F 29.9 in ESE 8.3 mph 15.9 mph 56% 0 in 435 W/m2
17:28 76.8 °F 59.5 °F 29.9 in SSE 6 mph 15.9 mph 55% 0 in 420 W/m2
17:33 77 °F 58.6 °F 29.8 in SSE 8.3 mph 15.2 mph 53% 0 in 406 W/m2
17:38 76.5 °F 59.2 °F 29.8 in SE 5.4 mph 13 mph 55% 0 in 390 W/m2
17:43 76.1 °F 58.3 °F 29.8 in ESE 6.9 mph 14.5 mph 54% 0 in 381 W/m2
17:48 76.8 °F 59 °F 29.9 in ESE 3.8 mph 14.5 mph 54% 0 in 361 W/m2
17:53 77.5 °F 57.9 °F 29.8 in ESE 6 mph 13.6 mph 51% 0 in 349 W/m2
17:58 77.9 °F 58.5 °F 29.8 in SE 5.4 mph 13.6 mph 51% 0 in 334 W/m2
18:03 77.5 °F 57.9 °F 29.8 in SE 8.3 mph 15.9 mph 51% 0 in 321 W/m2
18:08 76.8 °F 59 °F 29.8 in SE 4.5 mph 15.9 mph 54% 0 in 306 W/m2
18:13 76.6 °F 59.4 °F 29.8 in SE 6 mph 13.6 mph 55% 0 in 290 W/m2
18:18 76.5 °F 59.5 °F 29.8 in SE 1.6 mph 13.6 mph 56% 0 in 275 W/m2
18:23 77 °F 59.5 °F 29.8 in SE 7.6 mph 13 mph 55% 0 in 265 W/m2
18:28 76.8 °F 61 °F 29.8 in SSE 6 mph 13 mph 58% 0 in 251 W/m2
18:33 76.5 °F 61.2 °F 29.8 in SE 5.4 mph 13.6 mph 59% 0 in 234 W/m2
18:38 76.6 °F 60.8 °F 29.8 in ESE 6.9 mph 13.6 mph 58% 0 in 221 W/m2
18:43 76.8 °F 60.1 °F 29.8 in SE 7.6 mph 13 mph 56% 0 in 203 W/m2
18:48 75.6 °F 59.4 °F 29.9 in SE 4.5 mph 13 mph 57% 0 in 131 W/m2
18:53 75.2 °F 59 °F 29.8 in SE 6.9 mph 13 mph 57% 0 in 76 W/m2
18:58 74.8 °F 58.6 °F 29.9 in ESE 6.9 mph 13.6 mph 57% 0 in 167 W/m2
19:03 75 °F 58.3 °F 29.9 in ESE 7.6 mph 13.6 mph 56% 0 in 63 W/m2
19:08 73.9 °F 58.3 °F 29.9 in SE 6 mph 13.6 mph 58% 0 in 53 W/m2
19:13 73.6 °F 57.9 °F 29.9 in ESE 9.2 mph 13.6 mph 58% 0 in 46 W/m2
19:18 73.2 °F 57 °F 29.9 in SE 6.9 mph 15.2 mph 57% 0 in 42 W/m2
19:23 72.9 °F 56.8 °F 29.9 in SE 6.9 mph 15.2 mph 57% 0 in 40 W/m2
19:28 72.9 °F 57.4 °F 29.9 in SE 3.8 mph 15.2 mph 58% 0 in 49 W/m2
19:33 72.7 °F 57 °F 29.9 in SE 4.5 mph 14.5 mph 58% 0 in 47 W/m2
19:38 72.5 °F 57.4 °F 29.9 in ESE 7.6 mph 13 mph 59% 0 in 39 W/m2
19:43 72.1 °F 57 °F 29.9 in ESE 5.4 mph 15.9 mph 59% 0 in 41 W/m2
19:48 72 °F 56.8 °F 29.9 in ESE 6.9 mph 15.9 mph 59% 0 in 29 W/m2
19:53 71.6 °F 57 °F 29.9 in ESE 4.5 mph 13.6 mph 60% 0 in 25 W/m2
19:58 71.2 °F 57 °F 29.9 in ESE 7.6 mph 13.6 mph 61% 0 in 24 W/m2
20:03 70.9 °F 57.2 °F 29.9 in ESE 6 mph 13.6 mph 62% 0 in 18 W/m2
20:08 70.7 °F 57 °F 29.9 in ESE 4.5 mph 13 mph 62% 0 in 14 W/m2
20:13 70.5 °F 56.8 °F 29.9 in SE 4.5 mph 12.1 mph 62% 0 in 11 W/m2
20:18 70.5 °F 56.5 °F 29.9 in SE 3.8 mph 12.1 mph 61% 0 in 7 W/m2
20:23 70.5 °F 56.8 °F 29.9 in ESE 6 mph 9.2 mph 62% 0 in 4 W/m2
20:28 70.2 °F 56.7 °F 29.9 in SE 6.9 mph 11.4 mph 62% 0 in 1 W/m2
20:33 70 °F 56.8 °F 29.9 in ESE 6 mph 14.5 mph 63% 0 in 0 W/m2
20:38 69.8 °F 56.7 °F 29.9 in East 5.4 mph 15.9 mph 63% 0 in 0 W/m2
20:43 69.8 °F 56.1 °F 29.9 in ESE 10.7 mph 15.9 mph 62% 0 in 0 W/m2
20:48 70 °F 56.5 °F 29.9 in ESE 6 mph 13 mph 62% 0 in 0 W/m2
20:53 70.2 °F 55.8 °F 29.9 in ESE 6.9 mph 13.6 mph 60% 0 in 0 W/m2
20:58 70.2 °F 55.8 °F 29.9 in ESE 6.9 mph 13.6 mph 60% 0 in 0 W/m2
21:03 70.2 °F 55.2 °F 29.9 in East 4.5 mph 12.1 mph 59% 0 in 0 W/m2
21:08 70.3 °F 55.4 °F 29.9 in ESE 6 mph 13 mph 59% 0 in 0 W/m2
21:13 70.2 °F 55.8 °F 29.9 in East 6 mph 13 mph 60% 0 in 0 W/m2
21:18 70.2 °F 55.2 °F 29.9 in East 8.3 mph 12.1 mph 59% 0 in 0 W/m2
21:23 70.2 °F 55.2 °F 29.9 in ESE 6.9 mph 12.1 mph 59% 0 in 0 W/m2
21:40 70.3 °F 54.9 °F 29.9 in East 5.4 mph 11.4 mph 58% 0 in 0 W/m2
21:45 70.3 °F 54.9 °F 29.9 in East 6.9 mph 12.1 mph 58% 0 in 0 W/m2
21:50 70.3 °F 54.9 °F 29.9 in East 5.4 mph 12.1 mph 58% 0 in 0 W/m2
21:55 70.2 °F 54.7 °F 29.9 in East 6.9 mph 11.4 mph 58% 0 in 0 W/m2
22:00 70 °F 55 °F 29.9 in ENE 6.9 mph 10.7 mph 59% 0 in 0 W/m2
22:05 69.8 °F 54.9 °F 29.9 in East 4.5 mph 10.7 mph 59% 0 in 0 W/m2
22:10 69.8 °F 54.9 °F 29.9 in East 4.5 mph 8.3 mph 59% 0 in 0 W/m2
22:15 69.8 °F 54.9 °F 29.9 in East 6 mph 10.7 mph 59% 0 in 0 W/m2
22:20 69.8 °F 54.9 °F 29.9 in East 3.8 mph 10.7 mph 59% 0 in 0 W/m2
22:25 69.4 °F 55 °F 29.9 in East 5.4 mph 9.8 mph 60% 0 in 0 W/m2
22:30 69.3 °F 54.9 °F 29.9 in ENE 1.6 mph 9.2 mph 60% 0 in 0 W/m2
22:35 68.7 °F 54.9 °F 29.9 in Calm   9.2 mph 61% 0 in 0 W/m2
22:40 68 °F 55 °F 29.9 in North 1.6 mph 5.4 mph 63% 0 in 0 W/m2
22:45 67.1 °F 55 °F 29.9 in NNW 1.6 mph 3.8 mph 65% 0 in 0 W/m2
22:50 66.7 °F 55 °F 29.9 in NW 2.2 mph 3.1 mph 66% 0 in 0 W/m2
22:55 66.2 °F 54.9 °F 29.9 in NW 1.6 mph 3.1 mph 67% 0 in 0 W/m2
23:00 65.7 °F 55.6 °F 29.9 in NW 1.6 mph 3.1 mph 70% 0 in 0 W/m2
23:05 65.1 °F 55.6 °F 29.9 in NW 0.7 mph 3.1 mph 71% 0 in 0 W/m2
23:10 64.9 °F 55.8 °F 29.9 in NW 0.7 mph 2.2 mph 72% 0 in 0 W/m2
23:15 64.6 °F 56.5 °F 29.9 in NNW 1.6 mph 2.2 mph 75% 0 in 0 W/m2
23:20 64.2 °F 56.1 °F 29.9 in North 1.6 mph 3.1 mph 75% 0 in 0 W/m2
23:25 64 °F 56.3 °F 29.9 in North 0.7 mph 3.1 mph 76% 0 in 0 W/m2
23:30 63.7 °F 55.9 °F 29.9 in NNW 0.7 mph 3.1 mph 76% 0 in 0 W/m2
23:35 63.5 °F 56.1 °F 29.9 in Calm   2.2 mph 77% 0 in 0 W/m2
23:40 63.3 °F 55.9 °F 29.9 in Calm   2.2 mph 77% 0 in 0 W/m2
23:45 63.1 °F 55.8 °F 29.9 in NW 0.7 mph 2.2 mph 77% 0 in 0 W/m2
23:50 62.8 °F 55.8 °F 29.9 in NW 0.7 mph 2.2 mph 78% 0 in 0 W/m2
23:55 62.4 °F 56.8 °F 29.9 in NNW 1.6 mph 3.1 mph 82% 0 in 0 W/m2
Northern Hawkes Bay. New Zealand Historic Data
Compliments of Weather Underground - 2 mb